Time;durP1;ratioP1;P1;durP2;ratioP2;P2;SDS_P1;SDS_P2;PMS_P1;PMS_P2;Temp;Humidity;BMP_temperature;BMP_pressure;BME280_temperature;BME280_humidity;BME280_pressure;Samples;Min_cycle;Max_cycle;Signal;HPM_P1;HPM_P2
2023/01/20 00:00:25;;;;;;;87.13;27.20;;;2.90;99.90;;;;;;4024386;29;20193;-92
2023/01/20 00:02:26;;;;;;;85.00;27.17;;;2.90;99.90;;;;;;4024351;29;20713;-91
2023/01/20 00:04:27;;;;;;;81.10;26.00;;;2.90;99.90;;;;;;4024277;29;20183;-92
2023/01/20 00:06:28;;;;;;;77.40;26.53;;;3.10;99.90;;;;;;4039651;29;20205;-92
2023/01/20 00:08:29;;;;;;;80.37;26.40;;;2.80;99.90;;;;;;4039588;29;20190;-92
2023/01/20 00:10:29;;;;;;;79.57;26.27;;;2.80;99.90;;;;;;4024086;29;20647;-92
2023/01/20 00:12:30;;;;;;;71.60;26.07;;;2.80;99.90;;;;;;4039532;29;20243;-92
2023/01/20 00:14:31;;;;;;;74.07;23.00;;;2.80;99.90;;;;;;4024293;29;20659;-91
2023/01/20 00:16:32;;;;;;;82.10;26.13;;;2.60;99.90;;;;;;4024261;29;20197;-91
2023/01/20 00:18:33;;;;;;;74.77;25.83;;;2.70;99.90;;;;;;4024375;29;20241;-92
2023/01/20 00:20:34;;;;;;;67.73;25.40;;;2.70;99.90;;;;;;4024202;29;20175;-94
2023/01/20 00:22:40;;;;;;;68.93;24.63;;;2.80;99.90;;;;;;4039221;29;20261;-92
2023/01/20 00:24:41;;;;;;;64.03;22.40;;;2.60;99.90;;;;;;4039516;29;20190;-92
2023/01/20 00:26:42;;;;;;;73.30;25.07;;;2.50;99.90;;;;;;4039227;29;20241;-92
2023/01/20 00:28:44;;;;;;;70.77;25.33;;;2.60;99.90;;;;;;4024046;29;20185;-93
2023/01/20 00:30:44;;;;;;;67.70;25.20;;;2.60;99.90;;;;;;4023660;29;20225;-91
2023/01/20 00:32:45;;;;;;;64.63;24.30;;;2.60;99.90;;;;;;4023949;29;20178;-92
2023/01/20 00:34:46;;;;;;;64.40;23.87;;;2.60;99.90;;;;;;4039397;29;20192;-91
2023/01/20 00:36:47;;;;;;;61.23;22.60;;;2.50;99.90;;;;;;4023847;29;20185;-90
2023/01/20 00:38:48;;;;;;;65.27;23.63;;;2.60;99.90;;;;;;4024056;29;20609;-92
2023/01/20 00:40:53;;;;;;;61.30;23.17;;;2.70;99.90;;;;;;4039288;29;20261;-92
2023/01/20 00:42:54;;;;;;;54.30;22.47;;;2.70;99.90;;;;;;4039360;29;20679;-91
2023/01/20 00:44:55;;;;;;;61.07;22.20;;;2.60;99.90;;;;;;4039019;29;20249;-92
2023/01/20 00:46:56;;;;;;;60.80;22.60;;;2.80;99.90;;;;;;4023720;29;20198;-92
2023/01/20 00:48:56;;;;;;;61.13;22.17;;;2.80;99.90;;;;;;4039051;29;20269;-93
2023/01/20 00:50:57;;;;;;;61.17;21.70;;;2.60;99.90;;;;;;4022645;29;20182;-91
2023/01/20 00:52:58;;;;;;;61.87;22.37;;;2.60;99.90;;;;;;4023951;29;20182;-93
2023/01/20 00:54:59;;;;;;;56.63;22.87;;;2.40;99.90;;;;;;4023701;29;20656;-93
2023/01/20 00:56:59;;;;;;;64.20;23.03;;;2.50;99.90;;;;;;4039031;29;20202;-92
2023/01/20 00:59:01;;;;;;;69.90;23.40;;;2.60;99.90;;;;;;4023602;29;20277;-92
2023/01/20 01:01:02;;;;;;;60.83;22.70;;;2.40;99.90;;;;;;4023732;29;20239;-93
2023/01/20 01:03:04;;;;;;;59.97;23.13;;;2.50;99.90;;;;;;4024004;29;20174;-91
2023/01/20 01:05:05;;;;;;;68.10;23.87;;;2.40;99.90;;;;;;4038931;29;20186;-91
2023/01/20 01:07:06;;;;;;;57.63;22.33;;;2.30;99.90;;;;;;4023698;29;20198;-91
2023/01/20 01:09:07;;;;;;;64.33;22.53;;;2.40;99.90;;;;;;4038896;29;20654;-92
2023/01/20 01:11:08;;;;;;;61.80;23.10;;;2.40;99.90;;;;;;4023465;29;20625;-93
2023/01/20 01:13:09;;;;;;;62.97;23.30;;;2.60;99.90;;;;;;4023420;29;20205;-92
2023/01/20 01:15:10;;;;;;;60.80;22.53;;;2.70;99.90;;;;;;4038747;29;20181;-91
2023/01/20 01:17:11;;;;;;;57.40;20.57;;;2.80;99.90;;;;;;4023387;29;20190;-91
2023/01/20 01:19:12;;;;;;;60.50;22.40;;;2.70;99.90;;;;;;4023209;29;20188;-91
2023/01/20 01:21:14;;;;;;;54.03;21.30;;;2.60;99.90;;;;;;4023153;29;20182;-91
2023/01/20 01:23:15;;;;;;;63.17;21.73;;;2.50;99.90;;;;;;4038646;29;20178;-91
2023/01/20 01:25:16;;;;;;;62.57;22.83;;;2.60;99.90;;;;;;4038149;29;20221;-95
2023/01/20 01:27:17;;;;;;;59.93;22.57;;;2.70;99.90;;;;;;4023037;29;20698;-92
2023/01/20 01:29:17;;;;;;;59.83;21.60;;;2.70;99.90;;;;;;4023160;29;20178;-93
2023/01/20 01:31:20;;;;;;;70.17;23.60;;;2.70;99.90;;;;;;4023251;29;20222;-95
2023/01/20 01:33:21;;;;;;;58.63;22.70;;;2.60;99.90;;;;;;4023003;29;20234;-91
2023/01/20 01:35:22;;;;;;;60.50;23.67;;;2.60;99.90;;;;;;4038225;29;20197;-95
2023/01/20 01:37:23;;;;;;;60.87;22.47;;;2.60;99.90;;;;;;4022980;29;20258;-92
2023/01/20 01:39:24;;;;;;;67.13;23.00;;;2.60;99.90;;;;;;4038755;29;20173;-90
2023/01/20 01:41:26;;;;;;;66.00;21.63;;;2.60;99.90;;;;;;4023211;29;20182;-91
2023/01/20 01:43:34;;;;;;;57.53;22.17;;;2.50;99.90;;;;;;4023211;29;20186;-91
2023/01/20 01:45:34;;;;;;;66.60;22.77;;;2.50;99.90;;;;;;4022974;29;20170;-91
2023/01/20 01:47:48;;;;;;;58.57;21.40;;;2.60;99.90;;;;;;4038263;29;20288;-91
2023/01/20 01:49:48;;;;;;;59.90;21.10;;;2.50;99.90;;;;;;4038382;29;20177;-92
2023/01/20 01:51:58;;;;;;;55.53;21.27;;;2.20;99.90;;;;;;4022754;29;20216;-92
2023/01/20 01:54:04;;;;;;;55.57;21.97;;;2.30;99.90;;;;;;4038475;29;20181;-92
2023/01/20 01:56:05;;;;;;;55.10;23.37;;;2.40;99.90;;;;;;4022783;29;20179;-91
2023/01/20 01:58:10;;;;;;;64.87;21.83;;;2.30;99.90;;;;;;4038109;29;20219;-91
2023/01/20 02:00:11;;;;;;;56.27;22.57;;;2.30;99.90;;;;;;4022897;29;20579;-92
2023/01/20 02:02:16;;;;;;;61.80;22.07;;;2.10;99.90;;;;;;4022573;29;20174;-91
2023/01/20 02:04:20;;;;;;;55.77;21.83;;;2.10;99.90;;;;;;4022760;29;20194;-94
2023/01/20 02:06:24;;;;;;;54.13;21.67;;;2.10;99.90;;;;;;4037812;29;20178;-92
2023/01/20 02:08:25;;;;;;;64.97;22.40;;;2.10;99.90;;;;;;4022386;29;20208;-90
2023/01/20 02:10:26;;;;;;;62.10;22.37;;;2.10;99.90;;;;;;4022343;29;20548;-91
2023/01/20 02:12:28;;;;;;;57.03;22.90;;;1.90;99.90;;;;;;4022825;29;20218;-93
2023/01/20 02:14:47;;;;;;;57.07;21.90;;;2.10;99.90;;;;;;4022666;29;20282;-92
2023/01/20 02:17:04;;;;;;;59.43;23.63;;;2.00;99.90;;;;;;4037850;29;20185;-91
2023/01/20 02:19:27;;;;;;;53.07;21.97;;;2.10;99.90;;;;;;4022433;29;20336;-92
2023/01/20 02:21:48;;;;;;;54.07;22.03;;;2.20;99.90;;;;;;4037799;29;20184;-95
2023/01/20 02:24:07;;;;;;;70.87;22.27;;;2.30;99.90;;;;;;4022149;29;20182;-92
2023/01/20 02:26:40;;;;;;;64.10;23.63;;;2.10;99.90;;;;;;4022493;29;20186;-91
2023/01/20 02:28:50;;;;;;;60.87;23.10;;;2.20;99.90;;;;;;4022256;29;20540;-91
2023/01/20 02:31:15;;;;;;;64.80;23.50;;;2.10;99.90;;;;;;4037641;29;20185;-92
2023/01/20 02:33:22;;;;;;;60.67;22.27;;;2.10;99.90;;;;;;4037794;29;20241;-91
2023/01/20 02:35:22;;;;;;;57.13;23.37;;;2.10;99.90;;;;;;4022302;29;20190;-92
2023/01/20 02:37:29;;;;;;;61.57;23.33;;;2.00;99.90;;;;;;4022275;29;20212;-91
2023/01/20 02:39:50;;;;;;;53.07;22.30;;;1.90;99.90;;;;;;4022314;29;20178;-93
2023/01/20 02:42:07;;;;;;;54.13;22.40;;;2.20;99.90;;;;;;4022241;29;20178;-92
2023/01/20 02:44:50;;;;;;;59.20;21.53;;;2.20;99.90;;;;;;4022045;29;20248;-92
2023/01/20 02:47:10;;;;;;;58.73;22.60;;;2.30;99.90;;;;;;4019516;29;20210;-93
2023/01/20 02:49:16;;;;;;;57.33;22.23;;;2.10;99.90;;;;;;4022027;29;20575;-92
2023/01/20 02:51:26;;;;;;;58.77;20.23;;;2.20;99.90;;;;;;4021954;29;20218;-93
2023/01/20 02:53:35;;;;;;;58.57;21.57;;;2.10;99.90;;;;;;4037519;29;20223;-92
2023/01/20 02:55:47;;;;;;;58.70;21.03;;;1.80;99.90;;;;;;4022212;29;20537;-93
2023/01/20 02:57:55;;;;;;;55.87;22.03;;;1.80;99.90;;;;;;4022323;29;20206;-92
2023/01/20 03:00:02;;;;;;;55.50;20.83;;;1.70;99.90;;;;;;4037435;29;20196;-92
2023/01/20 03:02:10;;;;;;;47.53;20.23;;;1.70;99.90;;;;;;4022090;29;20177;-92
2023/01/20 03:04:14;;;;;;;58.27;22.83;;;1.70;99.90;;;;;;4022353;29;20274;-91
2023/01/20 03:06:23;;;;;;;58.70;21.50;;;1.90;99.90;;;;;;4037265;29;20181;-91
2023/01/20 03:08:28;;;;;;;58.10;22.93;;;1.80;99.90;;;;;;4021823;29;20194;-92
2023/01/20 03:10:31;;;;;;;49.13;20.63;;;1.70;99.90;;;;;;4037263;29;20213;-94
2023/01/20 03:12:49;;;;;;;57.57;22.17;;;1.80;99.90;;;;;;4021731;29;20217;-93
2023/01/20 03:14:51;;;;;;;57.77;21.37;;;1.90;99.90;;;;;;4025135;29;20627;-93
2023/01/20 03:16:52;;;;;;;56.80;22.17;;;1.90;99.90;;;;;;4040399;29;20576;-92
2023/01/20 03:18:54;;;;;;;57.37;21.60;;;1.90;99.90;;;;;;4040311;29;20386;-92
2023/01/20 03:20:57;;;;;;;58.13;22.03;;;1.90;99.90;;;;;;4024785;29;20651;-94
2023/01/20 03:22:57;;;;;;;53.40;21.70;;;1.70;99.90;;;;;;4024654;29;20687;-91
2023/01/20 03:24:59;;;;;;;49.63;21.10;;;1.70;99.90;;;;;;4040085;29;20193;-95
2023/01/20 03:27:00;;;;;;;48.57;20.13;;;1.70;99.90;;;;;;4024640;29;20202;-91
2023/01/20 03:29:10;;;;;;;51.03;21.87;;;1.80;99.90;;;;;;4024792;29;20183;-91
2023/01/20 03:31:16;;;;;;;55.50;21.77;;;1.90;99.90;;;;;;4040294;29;20177;-91
2023/01/20 03:33:17;;;;;;;58.47;21.50;;;1.90;99.90;;;;;;4025262;29;20667;-91
2023/01/20 03:35:18;;;;;;;52.73;21.50;;;1.90;99.90;;;;;;4040324;29;20174;-91
2023/01/20 03:37:19;;;;;;;53.27;21.10;;;1.70;99.90;;;;;;4040242;29;20611;-92
2023/01/20 03:41:55;;;;;;;52.57;20.83;;;1.60;99.90;;;;;;4009394;29;20681;-93
2023/01/20 03:44:02;;;;;;;52.77;20.50;;;1.80;99.90;;;;;;4024759;29;20186;-93
2023/01/20 03:46:10;;;;;;;54.57;20.57;;;2.00;99.90;;;;;;4024595;29;20186;-94
2023/01/20 03:48:46;;;;;;;55.23;20.57;;;1.80;99.90;;;;;;4024262;29;20205;-92
2023/01/20 03:50:55;;;;;;;46.87;18.80;;;1.70;99.90;;;;;;4024425;29;20222;-94
2023/01/20 03:53:26;;;;;;;52.80;21.27;;;1.60;99.90;;;;;;4024829;29;20189;-93
2023/01/20 03:55:39;;;;;;;59.80;21.67;;;1.60;99.90;;;;;;4014740;29;20202;-92
2023/01/20 03:57:50;;;;;;;49.77;20.50;;;1.60;99.90;;;;;;4024553;29;20201;-92
2023/01/20 03:59:52;;;;;;;48.37;19.23;;;1.60;99.90;;;;;;4039881;29;20185;-92
2023/01/20 04:01:53;;;;;;;53.50;20.77;;;1.50;99.90;;;;;;4024754;29;20186;-92
2023/01/20 04:03:55;;;;;;;54.53;21.17;;;1.50;99.90;;;;;;4040039;29;20696;-92
2023/01/20 04:05:59;;;;;;;52.10;21.27;;;1.60;99.90;;;;;;4040236;29;20177;-95
2023/01/20 04:08:05;;;;;;;55.17;20.83;;;1.80;99.90;;;;;;4040083;29;20229;-91
2023/01/20 04:10:10;;;;;;;49.87;20.30;;;1.70;99.90;;;;;;4039823;29;20230;-91
2023/01/20 04:12:11;;;;;;;48.13;19.43;;;1.70;99.90;;;;;;4024285;29;20253;-93
2023/01/20 04:14:12;;;;;;;59.77;21.13;;;1.70;99.90;;;;;;4024265;29;20186;-93
2023/01/20 04:16:15;;;;;;;48.90;20.47;;;1.70;99.90;;;;;;4024322;29;20182;-93
2023/01/20 04:18:18;;;;;;;53.47;20.57;;;1.80;99.90;;;;;;4024203;29;20266;-91
2023/01/20 04:20:23;;;;;;;55.73;21.07;;;1.80;99.90;;;;;;4024432;29;20242;-92
2023/01/20 04:22:52;;;;;;;58.63;21.93;;;1.90;99.90;;;;;;4024254;29;20175;-92
2023/01/20 04:24:59;;;;;;;50.00;20.87;;;1.90;99.90;;;;;;4019956;29;20190;-92
2023/01/20 04:27:00;;;;;;;53.80;19.87;;;2.00;99.90;;;;;;4039495;29;20201;-91
2023/01/20 04:29:07;;;;;;;52.47;20.47;;;2.00;99.90;;;;;;4039777;29;20212;-93
2023/01/20 04:31:08;;;;;;;57.73;20.10;;;1.90;99.90;;;;;;4024213;29;20625;-92
2023/01/20 04:33:08;;;;;;;50.73;21.00;;;1.70;99.90;;;;;;4039701;29;20193;-93
2023/01/20 04:35:13;;;;;;;50.60;20.30;;;1.80;99.90;;;;;;4024027;29;20178;-92
2023/01/20 04:37:14;;;;;;;55.57;21.33;;;1.80;99.90;;;;;;4039176;29;20707;-94
2023/01/20 04:39:14;;;;;;;42.57;16.07;;;1.80;99.90;;;;;;4024014;29;20258;-93
2023/01/20 04:41:15;;;;;;;48.50;19.17;;;1.80;99.90;;;;;;4039285;29;20186;-91
2023/01/20 04:43:17;;;;;;;59.20;21.00;;;1.60;99.90;;;;;;4023929;29;20604;-91
2023/01/20 04:45:17;;;;;;;47.70;18.23;;;1.70;99.90;;;;;;4023754;29;20189;-92
2023/01/20 04:47:18;;;;;;;50.20;20.20;;;1.70;99.90;;;;;;4023912;29;20683;-91
2023/01/20 04:49:19;;;;;;;47.20;18.50;;;1.60;99.90;;;;;;4039197;29;20170;-92
2023/01/20 04:51:20;;;;;;;49.23;20.63;;;1.60;99.90;;;;;;4023570;29;20221;-92
2023/01/20 04:53:20;;;;;;;56.27;20.70;;;1.60;99.90;;;;;;4039036;29;20280;-92
2023/01/20 04:55:21;;;;;;;48.40;20.03;;;1.60;99.90;;;;;;4024013;29;20627;-92
2023/01/20 04:57:22;;;;;;;51.17;20.67;;;1.80;99.90;;;;;;4023508;29;20206;-90
2023/01/20 04:59:23;;;;;;;53.77;22.20;;;1.80;99.90;;;;;;4023775;29;20181;-91
2023/01/20 05:01:24;;;;;;;56.47;21.17;;;1.80;99.90;;;;;;4023604;29;20266;-92
2023/01/20 05:03:24;;;;;;;55.50;20.13;;;1.80;99.90;;;;;;4039052;29;20173;-91
2023/01/20 05:05:25;;;;;;;51.60;20.00;;;1.90;99.90;;;;;;4023664;29;20686;-91
2023/01/20 05:07:26;;;;;;;50.83;20.93;;;1.90;99.90;;;;;;4023918;29;20210;-91
2023/01/20 05:09:26;;;;;;;55.90;22.13;;;1.80;99.90;;;;;;4039132;29;20750;-92
2023/01/20 05:11:27;;;;;;;54.03;20.77;;;1.90;99.90;;;;;;4023797;29;20247;-91
2023/01/20 05:13:28;;;;;;;51.70;21.63;;;2.00;99.90;;;;;;4038836;29;20201;-92
2023/01/20 05:15:29;;;;;;;54.03;22.67;;;2.20;99.90;;;;;;4023627;29;20178;-92
2023/01/20 05:17:30;;;;;;;59.53;21.87;;;2.20;99.90;;;;;;4023797;29;20286;-90
2023/01/20 05:19:31;;;;;;;54.23;20.70;;;2.10;99.90;;;;;;4023260;29;20185;-92
2023/01/20 05:21:32;;;;;;;57.43;20.50;;;2.20;99.90;;;;;;4038777;29;20211;-93
2023/01/20 05:23:33;;;;;;;50.93;21.77;;;2.00;99.90;;;;;;4023804;29;20178;-92
2023/01/20 05:25:34;;;;;;;49.70;20.67;;;2.10;99.90;;;;;;4038801;29;20178;-92
2023/01/20 05:27:37;;;;;;;60.00;23.17;;;2.20;99.90;;;;;;4023231;29;20186;-92
2023/01/20 05:29:37;;;;;;;53.30;20.47;;;2.10;99.90;;;;;;4023338;29;20588;-91
2023/01/20 05:31:41;;;;;;;52.97;20.87;;;2.10;99.90;;;;;;4038857;29;20213;-94
2023/01/20 05:33:42;;;;;;;52.63;20.57;;;2.10;99.90;;;;;;4023471;29;20273;-91
2023/01/20 05:35:43;;;;;;;45.87;19.20;;;2.00;99.90;;;;;;4022304;29;20227;-92
2023/01/20 05:37:44;;;;;;;48.37;19.50;;;2.00;99.90;;;;;;4023298;29;20201;-91
2023/01/20 05:39:44;;;;;;;53.03;20.73;;;2.10;99.90;;;;;;4023231;29;20182;-94
2023/01/20 05:41:45;;;;;;;52.50;20.73;;;2.10;99.90;;;;;;4038190;29;20231;-92
2023/01/20 05:43:46;;;;;;;51.03;20.33;;;2.00;99.90;;;;;;4038335;29;20686;-92
2023/01/20 05:45:47;;;;;;;46.27;19.10;;;2.00;99.90;;;;;;4022828;29;20183;-91
2023/01/20 05:47:52;;;;;;;54.33;20.27;;;2.00;99.90;;;;;;4022627;29;20239;-93
2023/01/20 05:49:53;;;;;;;47.60;19.10;;;2.00;99.90;;;;;;4022767;29;20273;-92
2023/01/20 05:51:54;;;;;;;52.63;20.57;;;2.00;99.90;;;;;;4022897;29;20587;-92
2023/01/20 05:53:55;;;;;;;54.40;21.43;;;2.10;99.90;;;;;;4022944;29;20209;-92
2023/01/20 05:56:00;;;;;;;47.73;20.20;;;2.20;99.90;;;;;;4037970;29;20186;-92
2023/01/20 05:58:02;;;;;;;47.07;18.73;;;2.30;99.90;;;;;;4022517;29;20259;-92
2023/01/20 06:00:04;;;;;;;45.70;17.93;;;2.20;99.90;;;;;;4022821;29;20281;-92
2023/01/20 06:02:05;;;;;;;48.33;20.30;;;1.90;99.90;;;;;;4038339;29;20177;-92
2023/01/20 06:04:06;;;;;;;47.50;19.80;;;1.90;99.90;;;;;;4038260;29;20182;-95
2023/01/20 06:06:14;;;;;;;49.10;19.70;;;2.00;99.90;;;;;;4022541;29;20205;-93
2023/01/20 06:08:14;;;;;;;57.93;21.03;;;2.00;99.90;;;;;;4022533;29;20197;-92
2023/01/20 06:10:16;;;;;;;56.70;20.90;;;1.90;99.90;;;;;;4037945;29;20739;-92
2023/01/20 06:12:17;;;;;;;45.67;18.03;;;1.90;99.90;;;;;;4022659;29;20256;-93
2023/01/20 06:14:18;;;;;;;56.17;20.93;;;1.70;99.90;;;;;;4037843;29;20190;-92
2023/01/20 06:16:19;;;;;;;62.10;21.90;;;1.70;99.90;;;;;;4037847;29;20178;-92
2023/01/20 06:18:21;;;;;;;53.57;19.90;;;1.70;99.90;;;;;;4022439;29;20194;-94
2023/01/20 06:20:22;;;;;;;52.77;21.53;;;1.70;99.90;;;;;;4022510;29;20178;-92
2023/01/20 06:22:23;;;;;;;55.87;21.40;;;1.70;99.90;;;;;;4022603;29;20517;-92
2023/01/20 06:24:23;;;;;;;53.33;21.67;;;1.70;99.90;;;;;;4022550;29;20190;-93
2023/01/20 06:26:24;;;;;;;48.67;20.23;;;1.70;99.90;;;;;;4037808;29;20632;-92
2023/01/20 06:28:25;;;;;;;56.30;22.63;;;1.70;99.90;;;;;;4022385;29;20201;-92
2023/01/20 06:30:26;;;;;;;55.97;21.30;;;1.70;99.90;;;;;;4037961;29;20177;-91
2023/01/20 06:32:27;;;;;;;43.97;19.13;;;1.70;99.90;;;;;;4023687;29;20213;-91
2023/01/20 06:34:53;;;;;;;51.80;21.17;;;1.70;99.90;;;;;;4023221;29;20182;-94
2023/01/20 06:37:05;;;;;;;54.47;19.40;;;1.70;99.90;;;;;;4022744;29;20572;-94
2023/01/20 06:39:07;;;;;;;51.70;20.00;;;1.80;99.90;;;;;;4023055;29;20188;-94
2023/01/20 06:41:10;;;;;;;51.50;20.93;;;1.80;99.90;;;;;;4022755;29;20190;-93
2023/01/20 06:43:22;;;;;;;53.33;20.13;;;1.90;99.90;;;;;;4039116;29;20203;-93
2023/01/20 06:45:39;;;;;;;39.90;15.80;;;1.90;99.90;;;;;;4023231;29;20178;-94
2023/01/20 06:48:09;;;;;;;54.67;20.57;;;2.00;99.90;;;;;;4038714;29;20258;-94
2023/01/20 06:50:13;;;;;;;51.53;20.77;;;1.80;99.90;;;;;;4022610;29;20213;-93
2023/01/20 06:52:14;;;;;;;70.27;28.63;;;1.80;99.90;;;;;;4038229;29;20323;-93
2023/01/20 06:54:15;;;;;;;49.83;19.27;;;1.80;99.90;;;;;;4037635;29;20215;-93
2023/01/20 06:56:25;;;;;;;59.10;21.77;;;1.80;99.90;;;;;;4023014;29;20189;-93
2023/01/20 06:58:31;;;;;;;35.37;14.03;;;1.90;99.90;;;;;;4022910;29;20253;-95
2023/01/20 07:00:31;;;;;;;53.53;20.10;;;2.00;99.90;;;;;;4038280;29;20200;-93
2023/01/20 07:02:32;;;;;;;44.03;20.43;;;1.90;99.90;;;;;;4023891;29;20179;-94
2023/01/20 07:04:35;;;;;;;49.03;19.80;;;1.80;99.90;;;;;;4037428;29;20274;-94
2023/01/20 07:06:42;;;;;;;51.37;19.40;;;1.80;99.90;;;;;;4021896;29;20272;-95
2023/01/20 07:08:56;;;;;;;50.47;19.30;;;1.90;99.90;;;;;;4038143;29;20181;-95
2023/01/20 07:11:11;;;;;;;46.73;18.37;;;1.70;99.90;;;;;;4040059;29;20173;-94
2023/01/20 07:13:14;;;;;;;56.47;19.23;;;1.80;99.90;;;;;;4024020;29;20190;-95
2023/01/20 07:15:15;;;;;;;48.47;19.77;;;2.00;99.90;;;;;;4040794;29;20182;-93
2023/01/20 07:17:16;;;;;;;45.60;19.87;;;1.90;99.90;;;;;;4022642;29;20201;-94
2023/01/20 07:19:18;;;;;;;44.00;17.90;;;1.90;99.90;;;;;;4023981;29;20712;-93
2023/01/20 07:21:22;;;;;;;44.80;19.50;;;1.90;99.90;;;;;;4022311;29;20186;-93
2023/01/20 07:23:23;;;;;;;45.60;19.43;;;1.90;99.90;;;;;;4024804;29;20190;-94
2023/01/20 07:25:27;;;;;;;45.50;17.93;;;1.90;99.90;;;;;;4023008;29;20187;-93
2023/01/20 07:27:27;;;;;;;39.03;16.33;;;1.80;99.90;;;;;;4021627;29;20226;-94
2023/01/20 07:29:28;;;;;;;43.57;17.87;;;1.70;99.90;;;;;;4021882;29;20613;-94
2023/01/20 07:31:37;;;;;;;41.90;18.33;;;1.70;99.90;;;;;;4037693;29;20213;-94
2023/01/20 07:33:46;;;;;;;43.23;19.17;;;1.60;99.90;;;;;;4022495;29;20187;-94
2023/01/20 07:35:58;;;;;;;45.73;18.30;;;1.70;99.90;;;;;;4024493;29;20236;-94
2023/01/20 07:38:12;;;;;;;45.33;18.53;;;1.80;99.90;;;;;;4025693;29;20193;-93
2023/01/20 07:42:46;;;;;;;39.57;17.70;;;1.90;99.90;;;;;;4038751;29;20290;-96
2023/01/20 07:45:30;;;;;;;39.90;16.83;;;2.10;99.90;;;;;;4023435;29;20189;-93
2023/01/20 07:47:48;;;;;;;41.13;17.47;;;2.00;99.90;;;;;;4051066;29;20216;-94
2023/01/20 07:49:52;;;;;;;44.13;18.23;;;2.10;99.90;;;;;;4038391;29;20220;-95
2023/01/20 07:51:58;;;;;;;40.37;17.50;;;2.00;99.90;;;;;;4023379;29;20226;-94
2023/01/20 07:54:01;;;;;;;47.27;18.13;;;2.00;99.90;;;;;;4022785;29;20202;-93
2023/01/20 07:56:20;;;;;;;43.73;18.03;;;2.00;99.90;;;;;;4024634;29;20181;-91
2023/01/20 07:58:21;;;;;;;38.27;17.73;;;2.10;99.90;;;;;;4022299;29;20182;-94
2023/01/20 08:00:22;;;;;;;42.97;18.87;;;2.10;99.90;;;;;;4039887;29;20182;-95
2023/01/20 08:02:25;;;;;;;43.23;18.17;;;2.30;99.90;;;;;;4025103;29;20672;-94
2023/01/20 08:04:54;;;;;;;37.80;17.43;;;2.30;99.90;;;;;;4026417;29;20182;-94
2023/01/20 08:07:12;;;;;;;41.70;17.73;;;2.20;99.90;;;;;;4042147;29;20205;-92
2023/01/20 08:09:18;;;;;;;35.80;14.77;;;2.10;99.90;;;;;;4040468;29;20265;-94
2023/01/20 08:11:21;;;;;;;44.37;18.20;;;2.10;99.90;;;;;;4042010;29;20174;-95
2023/01/20 08:13:22;;;;;;;49.17;21.77;;;2.20;99.90;;;;;;4024747;29;20198;-93
2023/01/20 08:15:28;;;;;;;36.00;13.97;;;2.10;99.90;;;;;;4026088;29;20199;-93
2023/01/20 08:17:40;;;;;;;42.53;17.70;;;2.20;99.90;;;;;;4041139;29;20193;-93
2023/01/20 08:20:22;;;;;;;40.37;15.93;;;2.20;99.90;;;;;;4055227;29;20253;-94
2023/01/20 08:22:42;;;;;;;70.30;31.63;;;2.20;99.90;;;;;;4042346;29;20181;-94
2023/01/20 08:24:55;;;;;;;39.40;16.37;;;2.00;99.90;;;;;;4039652;29;20181;-94
2023/01/20 08:26:56;;;;;;;35.87;15.30;;;2.10;99.90;;;;;;4043397;29;20173;-94
2023/01/20 08:29:10;;;;;;;42.37;16.37;;;1.90;99.90;;;;;;4025186;29;20238;-94
2023/01/20 08:31:13;;;;;;;47.60;19.63;;;1.90;99.90;;;;;;4025297;29;20174;-92
2023/01/20 08:33:19;;;;;;;32.23;15.37;;;2.10;99.90;;;;;;4024021;29;20182;-92
2023/01/20 08:35:25;;;;;;;44.37;16.83;;;2.10;99.90;;;;;;4027068;29;20679;-94
2023/01/20 08:37:40;;;;;;;31.83;17.13;;;2.10;99.90;;;;;;4041120;29;20750;-94
2023/01/20 08:39:47;;;;;;;34.57;15.23;;;2.40;99.90;;;;;;4025128;29;20171;-95
2023/01/20 08:41:59;;;;;;;33.53;16.47;;;2.60;99.90;;;;;;4026728;29;20177;-94
2023/01/20 08:44:12;;;;;;;34.40;15.43;;;2.50;99.90;;;;;;4039969;29;20189;-94
2023/01/20 08:49:06;;;;;;;24.83;10.70;;;2.40;99.90;;;;;;4040502;29;20698;-95
2023/01/20 08:51:26;;;;;;;40.90;15.50;;;2.40;99.90;;;;;;4039608;29;20190;-96
2023/01/20 08:53:33;;;;;;;37.40;14.93;;;2.50;99.90;;;;;;4025528;29;20174;-95
2023/01/20 08:55:39;;;;;;;34.43;15.03;;;2.50;99.90;;;;;;4039371;29;20186;-94
2023/01/20 08:57:40;;;;;;;33.00;15.10;;;2.60;99.90;;;;;;4023940;29;20198;-93
2023/01/20 08:59:41;;;;;;;33.03;14.90;;;2.70;99.90;;;;;;4039227;29;20890;-93
2023/01/20 09:01:46;;;;;;;35.30;14.80;;;2.80;99.90;;;;;;4024970;29;20176;-94
2023/01/20 09:03:51;;;;;;;32.77;14.33;;;3.00;99.90;;;;;;4026933;29;20176;-93
2023/01/20 09:05:58;;;;;;;34.20;14.37;;;2.70;99.90;;;;;;4044877;29;20211;-95
2023/01/20 09:08:01;;;;;;;28.33;13.60;;;2.70;99.90;;;;;;4025584;29;20202;-95
2023/01/20 09:10:03;;;;;;;35.03;14.53;;;2.90;99.90;;;;;;4038744;29;20193;-95
2023/01/20 09:12:05;;;;;;;31.07;13.03;;;2.90;99.90;;;;;;4022484;29;20222;-94
2023/01/20 09:14:05;;;;;;;30.30;13.57;;;3.00;99.90;;;;;;4023286;29;20182;-94
2023/01/20 09:16:16;;;;;;;31.57;12.97;;;3.00;99.90;;;;;;4039167;29;20269;-94
2023/01/20 09:18:19;;;;;;;30.90;12.57;;;3.00;99.90;;;;;;4039653;29;20200;-94
2023/01/20 09:20:25;;;;;;;36.10;16.63;;;3.00;99.90;;;;;;4030341;29;20194;-94
2023/01/20 09:22:28;;;;;;;31.90;13.50;;;3.10;99.90;;;;;;4039472;29;20163;-94
2023/01/20 09:24:31;;;;;;;38.60;16.80;;;3.10;99.90;;;;;;4043673;29;20355;-94
2023/01/20 09:26:37;;;;;;;22.97;12.30;;;3.30;99.90;;;;;;4024278;29;20174;-93
2023/01/20 09:28:45;;;;;;;26.73;12.50;;;3.20;99.90;;;;;;4038926;29;20272;-95
2023/01/20 09:30:46;;;;;;;28.40;11.57;;;3.20;99.90;;;;;;4023214;29;20230;-94
2023/01/20 09:32:52;;;;;;;32.30;14.00;;;3.40;99.90;;;;;;4024150;29;20561;-92
2023/01/20 09:34:55;;;;;;;26.33;11.43;;;3.60;99.90;;;;;;4023506;29;20252;-94
2023/01/20 09:45:35;;;;;;;21.60;9.87;;;3.80;99.90;;;;;;4040499;29;20196;-95
2023/01/20 09:47:45;;;;;;;22.63;9.57;;;3.80;99.90;;;;;;4016777;29;20221;-93
2023/01/20 09:55:11;;;;;;;20.77;9.43;;;3.80;99.90;;;;;;4053236;29;20723;-94
2023/01/20 09:57:13;;;;;;;21.87;10.33;;;3.70;99.90;;;;;;4022381;29;20217;-94
2023/01/20 09:59:25;;;;;;;21.77;9.17;;;3.70;99.90;;;;;;4038770;29;20180;-94
2023/01/20 10:01:44;;;;;;;20.73;9.83;;;3.70;99.90;;;;;;4022863;29;20189;-93
2023/01/20 10:03:54;;;;;;;26.43;10.10;;;3.80;99.90;;;;;;4023080;29;20186;-94
2023/01/20 10:05:58;;;;;;;23.33;9.20;;;4.10;99.90;;;;;;4023061;29;20262;-94
2023/01/20 10:08:21;;;;;;;26.80;9.47;;;4.10;99.90;;;;;;4022874;29;20281;-92
2023/01/20 10:10:46;;;;;;;18.70;8.97;;;3.90;99.90;;;;;;4022471;29;20190;-93
2023/01/20 10:13:14;;;;;;;20.97;8.87;;;4.00;99.90;;;;;;4037707;29;20225;-93
2023/01/20 10:15:26;;;;;;;19.80;7.90;;;4.10;99.90;;;;;;4023040;29;20236;-94
2023/01/20 10:17:33;;;;;;;20.53;8.60;;;4.30;99.90;;;;;;4022706;29;20206;-94
2023/01/20 10:19:43;;;;;;;16.80;7.87;;;4.30;99.90;;;;;;4037726;29;20180;-93
2023/01/20 10:21:53;;;;;;;22.80;8.93;;;4.40;99.90;;;;;;4023125;29;20188;-93
2023/01/20 10:24:17;;;;;;;18.20;7.53;;;4.50;99.90;;;;;;4037967;29;20665;-93
2023/01/20 10:26:27;;;;;;;19.27;8.03;;;4.70;99.90;;;;;;4023302;29;20192;-96
2023/01/20 10:28:36;;;;;;;21.10;7.83;;;4.70;99.90;;;;;;4022197;29;20220;-94
2023/01/20 10:30:37;;;;;;;17.57;6.50;;;4.60;99.90;;;;;;4037596;29;20275;-94
2023/01/20 10:33:01;;;;;;;19.97;8.23;;;4.80;99.90;;;;;;4037570;29;20567;-93
2023/01/20 10:35:16;;;;;;;20.80;8.20;;;4.80;99.90;;;;;;4023482;29;20187;-93
2023/01/20 10:37:21;;;;;;;25.47;7.43;;;4.90;99.90;;;;;;4022923;29;20233;-93
2023/01/20 10:39:43;;;;;;;18.67;7.67;;;4.80;99.90;;;;;;4022069;29;20269;-93
2023/01/20 10:41:54;;;;;;;18.77;8.07;;;5.00;99.90;;;;;;4022131;29;20190;-93
2023/01/20 10:43:56;;;;;;;16.50;6.90;;;4.90;99.90;;;;;;4023790;29;20178;-94
2023/01/20 10:46:03;;;;;;;22.43;7.47;;;5.10;99.90;;;;;;4022742;29;20189;-92
2023/01/20 10:48:16;;;;;;;22.93;8.07;;;5.10;99.90;;;;;;4022290;29;20659;-93
2023/01/20 10:50:49;;;;;;;18.77;7.00;;;5.30;99.90;;;;;;4022188;29;20188;-93
2023/01/20 10:53:00;;;;;;;23.10;6.77;;;5.30;99.90;;;;;;4037525;29;20241;-94
2023/01/20 10:55:36;;;;;;;20.50;7.10;;;5.20;99.90;;;;;;4022039;29;20190;-93
2023/01/20 10:57:39;;;;;;;21.27;6.83;;;5.20;99.90;;;;;;4023467;29;20205;-94
2023/01/20 10:59:50;;;;;;;18.13;7.07;;;5.20;99.90;;;;;;4022174;29;20209;-94
2023/01/20 11:01:52;;;;;;;14.97;6.40;;;5.10;99.90;;;;;;4022428;29;20181;-95
2023/01/20 11:03:57;;;;;;;22.23;7.10;;;5.00;99.90;;;;;;4022005;29;20186;-94
2023/01/20 11:05:59;;;;;;;14.03;6.50;;;5.20;99.90;;;;;;4037672;29;20715;-94
2023/01/20 11:11:28;;;;;;;12.40;5.37;;;5.50;99.90;;;;;;4028021;29;20246;-94
2023/01/20 11:13:29;;;;;;;30.00;6.53;;;5.60;99.90;;;;;;4037348;29;20201;-94